createdAt,value
2018-12-06T00:00:01.830Z,4.40
2018-12-06T00:02:29.358Z,4.40
2018-12-06T00:04:56.863Z,4.40
2018-12-06T00:07:24.395Z,4.40
2018-12-06T00:09:51.903Z,4.40
2018-12-06T00:12:19.429Z,4.40
2018-12-06T00:14:46.931Z,4.40
2018-12-06T00:17:14.484Z,4.60
2018-12-06T00:19:41.986Z,4.90
2018-12-06T00:22:09.507Z,5.00
2018-12-06T00:24:37.019Z,5.20
2018-12-06T00:27:04.629Z,5.10
2018-12-06T00:29:32.210Z,5.10
2018-12-06T00:31:59.729Z,5.20
2018-12-06T00:34:27.230Z,5.20
2018-12-06T00:36:54.757Z,5.20
2018-12-06T00:39:22.558Z,5.00
2018-12-06T00:41:50.089Z,5.00
2018-12-06T00:44:17.609Z,5.00
2018-12-06T00:46:45.126Z,5.10
2018-12-06T00:49:12.625Z,5.00
2018-12-06T00:51:40.131Z,5.00
2018-12-06T00:54:07.665Z,5.20
2018-12-06T00:56:35.166Z,5.30
2018-12-06T00:59:02.693Z,5.30
2018-12-06T01:01:30.281Z,5.30
2018-12-06T01:03:57.807Z,5.10
2018-12-06T01:06:25.382Z,4.90
2018-12-06T01:08:52.906Z,4.90
2018-12-06T01:11:20.479Z,4.80
2018-12-06T01:13:48.254Z,4.80
2018-12-06T01:16:15.761Z,4.90
2018-12-06T01:18:43.669Z,4.90
2018-12-06T01:21:11.434Z,4.90
2018-12-06T01:23:38.957Z,4.80
2018-12-06T01:26:06.458Z,4.80
2018-12-06T01:28:33.978Z,4.80
2018-12-06T01:31:01.762Z,4.80
2018-12-06T01:33:29.280Z,4.80
2018-12-06T01:35:56.802Z,4.80
2018-12-06T01:38:24.334Z,4.80
2018-12-06T01:40:51.845Z,4.90
2018-12-06T01:43:19.644Z,4.90
2018-12-06T01:45:47.165Z,4.90
2018-12-06T01:48:14.961Z,4.90
2018-12-06T01:50:42.470Z,5.00
2018-12-06T01:53:09.993Z,5.00
2018-12-06T01:55:37.737Z,5.10
2018-12-06T01:58:05.241Z,5.30
2018-12-06T02:00:32.774Z,5.20
2018-12-06T02:03:00.277Z,5.20
2018-12-06T02:05:27.794Z,5.20
2018-12-06T02:07:55.288Z,5.20
2018-12-06T02:10:23.078Z,5.20
2018-12-06T02:12:50.572Z,5.20
2018-12-06T02:15:18.089Z,5.20
2018-12-06T02:17:45.585Z,5.20
2018-12-06T02:20:13.100Z,5.10
2018-12-06T02:22:40.607Z,5.10
2018-12-06T02:25:08.126Z,5.10
2018-12-06T02:27:35.620Z,5.10
2018-12-06T02:30:04.471Z,5.10
2018-12-06T02:32:31.964Z,5.10
2018-12-06T02:34:59.485Z,5.10
2018-12-06T02:37:26.978Z,5.10
2018-12-06T02:39:54.494Z,5.10
2018-12-06T02:42:21.994Z,5.00
2018-12-06T02:44:49.793Z,5.00
2018-12-06T02:47:17.352Z,5.00
2018-12-06T02:49:44.868Z,5.10
2018-12-06T02:52:12.528Z,5.30
2018-12-06T02:54:40.109Z,5.40
2018-12-06T02:57:07.614Z,5.70
2018-12-06T02:59:35.110Z,5.80
2018-12-06T03:02:02.633Z,5.70
2018-12-06T03:04:30.349Z,5.50
2018-12-06T03:06:57.881Z,5.40
2018-12-06T03:09:25.390Z,5.30
2018-12-06T03:11:53.226Z,5.30
2018-12-06T03:14:20.991Z,5.30
2018-12-06T03:16:48.513Z,5.50
2018-12-06T03:19:16.085Z,5.50
2018-12-06T03:21:43.604Z,5.40
2018-12-06T03:24:11.121Z,5.40
2018-12-06T03:26:38.644Z,5.50
2018-12-06T03:29:06.216Z,5.60
2018-12-06T03:31:33.729Z,5.60
2018-12-06T03:34:01.234Z,5.80
2018-12-06T03:36:28.768Z,6.00
2018-12-06T03:38:56.555Z,6.00
2018-12-06T03:41:24.085Z,5.80
2018-12-06T03:43:51.577Z,5.90
2018-12-06T03:46:19.141Z,5.80
2018-12-06T03:48:46.663Z,5.90
2018-12-06T03:51:14.158Z,5.90
2018-12-06T03:53:41.688Z,5.80
2018-12-06T03:56:09.180Z,5.80
2018-12-06T03:58:36.703Z,5.90
2018-12-06T04:01:04.210Z,5.90
2018-12-06T04:03:31.724Z,5.90
2018-12-06T04:05:59.220Z,5.90
2018-12-06T04:08:26.745Z,6.00
2018-12-06T04:10:54.253Z,5.90
2018-12-06T04:13:21.872Z,5.90
2018-12-06T04:15:49.373Z,6.00
2018-12-06T04:18:16.894Z,5.90
2018-12-06T04:20:44.389Z,5.90
2018-12-06T04:23:11.909Z,6.00
2018-12-06T04:25:39.401Z,6.00
2018-12-06T04:28:06.929Z,6.10
2018-12-06T04:30:34.425Z,6.10
2018-12-06T04:33:01.982Z,6.00
2018-12-06T04:35:29.849Z,6.00
2018-12-06T04:37:57.407Z,6.00
2018-12-06T04:40:24.917Z,5.90
2018-12-06T04:42:52.428Z,6.00
2018-12-06T04:45:19.956Z,5.90
2018-12-06T04:47:47.453Z,5.90
2018-12-06T04:50:14.975Z,5.90
2018-12-06T04:52:42.478Z,6.00
2018-12-06T04:55:10.008Z,6.00
2018-12-06T04:57:37.754Z,6.00
2018-12-06T05:00:05.418Z,6.10
2018-12-06T05:02:32.913Z,6.20
2018-12-06T05:05:00.449Z,6.20
2018-12-06T05:07:27.945Z,6.20
2018-12-06T05:09:55.472Z,6.20
2018-12-06T05:12:22.966Z,6.00
2018-12-06T05:14:50.753Z,6.00
2018-12-06T05:17:18.249Z,5.90
2018-12-06T05:19:45.773Z,5.80
2018-12-06T05:22:13.347Z,5.80
2018-12-06T05:24:40.869Z,5.90
2018-12-06T05:27:08.377Z,6.00
2018-12-06T05:29:35.893Z,5.90
2018-12-06T05:32:03.475Z,6.00
2018-12-06T05:34:31.041Z,6.10
2018-12-06T05:36:58.541Z,6.00
2018-12-06T05:39:26.035Z,6.00
2018-12-06T05:41:53.563Z,6.00
2018-12-06T05:44:21.065Z,5.90
2018-12-06T05:46:48.602Z,5.70
2018-12-06T05:49:16.096Z,5.70
2018-12-06T05:51:43.902Z,5.70
2018-12-06T05:54:11.398Z,5.70
2018-12-06T05:56:39.219Z,5.70
2018-12-06T05:59:06.713Z,5.70
2018-12-06T06:01:34.228Z,5.70
2018-12-06T06:04:01.729Z,5.70
2018-12-06T06:06:29.250Z,5.70
2018-12-06T06:08:56.752Z,5.70
2018-12-06T06:11:24.273Z,5.70
2018-12-06T06:13:51.769Z,5.80
2018-12-06T06:16:19.301Z,5.70
2018-12-06T06:18:46.799Z,5.80
2018-12-06T06:21:14.321Z,5.90
2018-12-06T06:23:41.825Z,6.00
2018-12-06T06:26:09.356Z,6.10
2018-12-06T06:28:37.149Z,6.20
2018-12-06T06:31:04.709Z,6.10
2018-12-06T06:33:32.211Z,6.20
2018-12-06T06:35:59.705Z,6.10
2018-12-06T06:38:27.481Z,6.00
2018-12-06T06:40:54.980Z,5.90
2018-12-06T06:43:22.509Z,5.80
2018-12-06T06:45:50.011Z,5.80
2018-12-06T06:48:17.538Z,5.80
2018-12-06T06:50:45.029Z,5.80
2018-12-06T06:53:12.573Z,5.90
2018-12-06T06:55:40.070Z,5.90
2018-12-06T06:58:07.667Z,5.90
2018-12-06T07:00:35.170Z,6.20
2018-12-06T07:03:02.689Z,6.10
2018-12-06T07:05:30.191Z,6.30
2018-12-06T07:07:57.730Z,6.10
2018-12-06T07:10:25.235Z,6.00
2018-12-06T07:12:52.754Z,6.00
2018-12-06T07:15:20.259Z,6.10
2018-12-06T07:17:47.782Z,6.10
2018-12-06T07:20:15.284Z,6.10
2018-12-06T07:22:42.857Z,6.00
2018-12-06T07:25:10.658Z,6.00
2018-12-06T07:27:38.182Z,6.00
2018-12-06T07:30:12.117Z,6.10
2018-12-06T07:32:35.388Z,6.00
2018-12-06T07:35:03.126Z,6.20
2018-12-06T07:37:30.644Z,6.10
2018-12-06T07:39:58.173Z,6.20
2018-12-06T07:42:25.675Z,6.10
2018-12-06T07:44:53.189Z,6.20
2018-12-06T07:47:20.692Z,6.20
2018-12-06T07:49:48.250Z,6.40
2018-12-06T07:52:15.755Z,6.40
2018-12-06T07:54:43.861Z,6.40
2018-12-06T07:57:11.427Z,6.30
2018-12-06T07:59:38.953Z,6.20
2018-12-06T08:02:06.537Z,6.30
2018-12-06T08:04:34.426Z,6.30
2018-12-06T08:07:02.188Z,6.30
2018-12-06T08:09:29.714Z,6.50
2018-12-06T08:11:57.234Z,6.60
2018-12-06T08:14:24.778Z,6.60
2018-12-06T08:16:52.292Z,6.60
2018-12-06T08:19:19.815Z,6.70
2018-12-06T08:21:47.319Z,6.60
2018-12-06T08:24:14.842Z,6.60
2018-12-06T08:26:42.341Z,6.60
2018-12-06T08:29:09.834Z,6.70
2018-12-06T08:31:37.357Z,6.70
2018-12-06T08:34:06.355Z,6.90
2018-12-06T08:36:34.297Z,6.80
2018-12-06T08:39:02.060Z,6.80
2018-12-06T08:41:29.586Z,6.80
2018-12-06T08:43:57.086Z,6.70
2018-12-06T08:46:24.837Z,6.90
2018-12-06T08:48:52.335Z,6.80
2018-12-06T08:51:20.148Z,6.80
2018-12-06T08:53:47.669Z,6.90
2018-12-06T08:56:15.468Z,6.90
2018-12-06T08:58:42.961Z,7.00
2018-12-06T09:01:10.482Z,7.00
2018-12-06T09:03:37.977Z,7.00
2018-12-06T09:06:05.509Z,7.00
2018-12-06T09:08:33.012Z,6.90
2018-12-06T09:11:00.534Z,7.00
2018-12-06T09:13:28.033Z,7.00
2018-12-06T09:15:55.556Z,7.10
2018-12-06T09:18:23.061Z,7.20
2018-12-06T09:20:50.580Z,7.20
2018-12-06T09:23:18.077Z,7.20
2018-12-06T09:25:46.389Z,7.30
2018-12-06T09:28:14.017Z,7.40
2018-12-06T09:30:41.538Z,7.40
2018-12-06T09:33:09.032Z,7.50
2018-12-06T09:35:36.556Z,7.30
2018-12-06T09:38:04.129Z,7.40
2018-12-06T09:40:31.631Z,7.30
2018-12-06T09:42:59.236Z,7.40
2018-12-06T09:45:26.733Z,7.40
2018-12-06T09:47:54.249Z,7.40
2018-12-06T09:50:22.125Z,7.50
2018-12-06T09:52:49.649Z,7.40
2018-12-06T09:55:17.150Z,7.60
2018-12-06T09:57:44.669Z,7.60
2018-12-06T10:00:14.641Z,7.50
2018-12-06T10:02:42.166Z,7.50
2018-12-06T10:05:09.826Z,7.50
2018-12-06T10:07:37.350Z,7.60
2018-12-06T10:10:05.783Z,7.60
2018-12-06T10:12:33.304Z,7.60
2018-12-06T10:15:00.805Z,7.60
2018-12-06T10:17:28.329Z,7.60
2018-12-06T10:19:55.825Z,7.70
2018-12-06T10:22:23.349Z,7.70
2018-12-06T10:24:50.848Z,7.60
2018-12-06T10:27:18.373Z,7.60
2018-12-06T10:29:45.889Z,7.50
2018-12-06T10:32:13.419Z,7.50
2018-12-06T10:34:41.225Z,7.50
2018-12-06T10:37:08.749Z,7.60
2018-12-06T10:39:36.245Z,7.60
2018-12-06T10:42:04.097Z,7.90
2018-12-06T10:44:31.722Z,8.00
2018-12-06T10:46:59.246Z,8.00
2018-12-06T10:49:26.748Z,8.00
2018-12-06T10:51:54.268Z,8.10
2018-12-06T10:54:21.867Z,8.00
2018-12-06T10:56:49.645Z,8.10
2018-12-06T10:59:17.505Z,8.10
2018-12-06T11:01:46.833Z,8.20
2018-12-06T11:04:14.462Z,8.20
2018-12-06T11:06:41.968Z,8.20
2018-12-06T11:09:09.486Z,8.30
2018-12-06T11:11:36.994Z,8.30
2018-12-06T11:14:04.585Z,8.30
2018-12-06T11:16:32.087Z,8.30
2018-12-06T11:18:59.618Z,8.30
2018-12-06T11:21:27.463Z,8.40
2018-12-06T11:23:54.978Z,8.50
2018-12-06T11:26:22.598Z,8.50
2018-12-06T11:28:50.118Z,8.60
2018-12-06T11:31:17.620Z,8.70
2018-12-06T11:33:45.452Z,8.70
2018-12-06T11:36:12.957Z,8.80
2018-12-06T11:38:40.771Z,8.80
2018-12-06T11:41:08.275Z,8.90
2018-12-06T11:43:35.801Z,8.90
2018-12-06T11:46:03.304Z,8.90
2018-12-06T11:48:30.803Z,9.00
2018-12-06T11:50:58.321Z,8.90
2018-12-06T11:53:26.112Z,8.90
2018-12-06T11:55:53.637Z,9.00
2018-12-06T11:58:21.136Z,9.00
2018-12-06T12:00:48.662Z,9.10
2018-12-06T12:03:16.438Z,9.10
2018-12-06T12:05:43.960Z,9.20
2018-12-06T12:08:11.454Z,9.20
2018-12-06T12:10:38.973Z,9.10
2018-12-06T12:13:06.473Z,9.10
2018-12-06T12:15:33.993Z,9.10
2018-12-06T12:18:01.494Z,9.10
2018-12-06T12:20:29.018Z,9.00
2018-12-06T12:22:56.789Z,9.10
2018-12-06T12:25:24.311Z,9.10
2018-12-06T12:27:51.824Z,9.10
2018-12-06T12:30:19.504Z,9.30
2018-12-06T12:32:47.086Z,9.30
2018-12-06T12:35:14.608Z,9.40
2018-12-06T12:37:42.109Z,9.50
2018-12-06T12:40:09.947Z,9.50
2018-12-06T12:42:37.469Z,9.60
2018-12-06T12:45:06.296Z,9.60
2018-12-06T12:47:33.817Z,9.60
2018-12-06T12:50:01.319Z,9.60
2018-12-06T12:52:28.837Z,9.60
2018-12-06T12:54:56.666Z,9.70
2018-12-06T12:57:24.425Z,9.70
2018-12-06T12:59:51.919Z,9.80
2018-12-06T13:02:19.524Z,9.90
2018-12-06T13:04:47.024Z,9.80
2018-12-06T13:07:14.544Z,9.90
2018-12-06T13:09:42.312Z,9.90
2018-12-06T13:12:09.832Z,9.90
2018-12-06T13:14:37.405Z,10.00
2018-12-06T13:17:04.944Z,10.00
2018-12-06T13:19:32.529Z,10.00
2018-12-06T13:22:00.084Z,10.10
2018-12-06T13:24:27.582Z,10.10
2018-12-06T13:26:55.111Z,10.00
2018-12-06T13:29:22.620Z,10.10
2018-12-06T13:31:50.144Z,10.10
2018-12-06T13:34:17.645Z,10.10
2018-12-06T13:36:45.441Z,10.10
2018-12-06T13:39:13.010Z,10.20
2018-12-06T13:41:40.547Z,10.20
2018-12-06T13:44:08.088Z,10.10
2018-12-06T13:46:35.590Z,10.00
2018-12-06T13:49:03.177Z,10.10
2018-12-06T13:51:30.989Z,10.10
2018-12-06T13:53:58.850Z,10.10
2018-12-06T13:56:26.350Z,10.00
2018-12-06T13:58:53.873Z,10.00
2018-12-06T14:01:21.533Z,10.10
2018-12-06T14:03:49.225Z,10.10
2018-12-06T14:06:16.733Z,10.10
2018-12-06T14:08:44.602Z,10.10
2018-12-06T14:11:12.109Z,10.00
2018-12-06T14:13:39.632Z,10.10
2018-12-06T14:16:10.509Z,10.10
2018-12-06T14:18:36.976Z,10.10
2018-12-06T14:21:04.556Z,10.20
2018-12-06T14:23:32.087Z,10.20
2018-12-06T14:25:59.591Z,10.10
2018-12-06T14:28:27.344Z,10.20
2018-12-06T14:30:54.888Z,10.10
2018-12-06T14:33:22.419Z,10.20
2018-12-06T14:35:50.281Z,10.20
2018-12-06T14:38:17.884Z,10.40
2018-12-06T14:40:45.384Z,10.40
2018-12-06T14:43:13.363Z,10.40
2018-12-06T14:45:40.967Z,10.50
2018-12-06T14:48:09.150Z,10.60
2018-12-06T14:50:36.682Z,10.50
2018-12-06T14:53:04.197Z,10.40
2018-12-06T14:55:31.875Z,10.30
2018-12-06T14:57:59.423Z,10.30
2018-12-06T15:00:26.998Z,10.30
2018-12-06T15:02:54.540Z,10.20
2018-12-06T15:05:22.140Z,10.20
2018-12-06T15:07:49.645Z,10.20
2018-12-06T15:10:17.189Z,10.30
2018-12-06T15:12:44.972Z,10.30
2018-12-06T15:15:12.516Z,10.20
2018-12-06T15:17:40.025Z,10.10
2018-12-06T15:20:07.707Z,10.10
2018-12-06T15:22:35.217Z,10.10
2018-12-06T15:25:02.903Z,10.10
2018-12-06T15:27:30.922Z,10.10
2018-12-06T15:29:58.640Z,10.20
2018-12-06T15:32:26.211Z,10.20
2018-12-06T15:34:53.773Z,10.30
2018-12-06T15:37:21.285Z,10.30
2018-12-06T15:39:48.791Z,10.60
2018-12-06T15:42:16.357Z,10.60
2018-12-06T15:44:43.863Z,10.60
2018-12-06T15:47:11.361Z,10.80
2018-12-06T15:49:38.965Z,10.80
2018-12-06T15:52:06.565Z,10.70
2018-12-06T15:54:34.070Z,10.70
2018-12-06T15:57:02.005Z,10.70
2018-12-06T15:59:29.775Z,10.70
2018-12-06T16:01:57.343Z,10.60
2018-12-06T16:04:24.895Z,10.70
2018-12-06T16:06:52.395Z,10.60
2018-12-06T16:09:19.903Z,10.70
2018-12-06T16:11:47.448Z,10.60
2018-12-06T16:14:14.993Z,10.50
2018-12-06T16:16:42.539Z,10.40
2018-12-06T16:19:10.077Z,10.20
2018-12-06T16:21:37.613Z,10.00
2018-12-06T16:24:05.548Z,9.90
2018-12-06T16:27:02.353Z,10.00
2018-12-06T16:29:29.974Z,10.10
2018-12-06T16:31:57.481Z,10.10
2018-12-06T16:34:25.036Z,10.10
2018-12-06T16:36:52.609Z,10.00
2018-12-06T16:39:20.478Z,10.00
2018-12-06T16:41:48.013Z,10.20
2018-12-06T16:44:15.507Z,10.30
2018-12-06T16:46:43.073Z,10.40
2018-12-06T16:49:10.581Z,10.30
2018-12-06T16:51:38.133Z,10.30
2018-12-06T16:54:05.704Z,10.20
2018-12-06T16:56:33.240Z,10.10
2018-12-06T16:59:00.749Z,10.10
2018-12-06T17:01:28.293Z,10.00
2018-12-06T17:03:55.789Z,9.90
2018-12-06T17:06:23.330Z,9.80
2018-12-06T17:08:50.874Z,9.90
2018-12-06T17:11:18.365Z,9.90
2018-12-06T17:13:45.909Z,9.90
2018-12-06T17:16:13.467Z,10.00
2018-12-06T17:18:40.980Z,10.00
2018-12-06T17:21:08.486Z,10.30
2018-12-06T17:23:36.026Z,10.50
2018-12-06T17:26:03.597Z,10.40
2018-12-06T17:28:31.415Z,10.40
2018-12-06T17:30:58.921Z,10.50
2018-12-06T17:33:26.427Z,10.40
2018-12-06T17:35:53.980Z,10.40
2018-12-06T17:38:21.589Z,10.40
2018-12-06T17:40:49.138Z,10.50
2018-12-06T17:43:16.642Z,10.40
2018-12-06T17:45:44.192Z,10.40
2018-12-06T17:48:11.699Z,10.40
2018-12-06T17:50:39.854Z,10.40
2018-12-06T17:53:07.399Z,10.40
2018-12-06T17:55:36.905Z,10.40
2018-12-06T17:58:04.430Z,10.30
2018-12-06T18:00:33.547Z,10.30
2018-12-06T18:03:01.301Z,10.20
2018-12-06T18:05:28.869Z,10.20
2018-12-06T18:07:56.373Z,10.10
2018-12-06T18:10:24.153Z,10.30
2018-12-06T18:12:51.689Z,10.30
2018-12-06T18:15:19.570Z,10.20
2018-12-06T18:17:47.092Z,10.10
2018-12-06T18:20:14.621Z,10.10
2018-12-06T18:22:42.127Z,10.10
2018-12-06T18:25:09.663Z,10.20
2018-12-06T18:27:37.164Z,10.10
2018-12-06T18:30:08.357Z,10.10
2018-12-06T18:32:35.855Z,10.20
2018-12-06T18:35:03.922Z,10.10
2018-12-06T18:37:31.427Z,10.10
2018-12-06T18:39:59.265Z,10.00
2018-12-06T18:42:26.757Z,9.90
2018-12-06T18:44:54.292Z,10.10
2018-12-06T18:47:21.797Z,10.20
2018-12-06T18:49:49.876Z,10.10
2018-12-06T18:52:17.517Z,10.00
2018-12-06T18:54:45.013Z,9.80
2018-12-06T18:57:12.555Z,9.80
2018-12-06T18:59:40.072Z,9.70
2018-12-06T19:02:07.687Z,9.70
2018-12-06T19:04:35.228Z,9.60
2018-12-06T19:07:02.765Z,9.60
2018-12-06T19:09:30.276Z,9.60
2018-12-06T19:11:57.797Z,9.70
2018-12-06T19:14:25.297Z,10.00
2018-12-06T19:16:52.864Z,10.10
2018-12-06T19:19:20.800Z,10.20
2018-12-06T19:21:48.327Z,10.10
2018-12-06T19:24:15.882Z,10.00
2018-12-06T19:26:43.413Z,10.20
2018-12-06T19:29:10.907Z,10.20
2018-12-06T19:31:38.675Z,10.20
2018-12-06T19:34:06.178Z,10.10
2018-12-06T19:36:33.701Z,10.10
2018-12-06T19:39:01.208Z,10.10
2018-12-06T19:41:28.738Z,10.10
2018-12-06T19:43:56.240Z,10.20
2018-12-06T19:46:23.766Z,10.20
2018-12-06T19:48:51.269Z,10.40
2018-12-06T19:51:18.777Z,10.30
2018-12-06T19:53:46.311Z,10.30
2018-12-06T19:56:14.137Z,10.20
2018-12-06T19:58:41.699Z,10.10
2018-12-06T20:01:09.302Z,10.10
2018-12-06T20:03:36.829Z,10.00
2018-12-06T20:06:04.400Z,10.00
2018-12-06T20:08:31.920Z,10.10
2018-12-06T20:10:59.422Z,10.20
2018-12-06T20:13:26.942Z,10.50
2018-12-06T20:15:54.445Z,10.50
2018-12-06T20:18:21.976Z,10.70
2018-12-06T20:20:49.468Z,10.80
2018-12-06T20:23:17.002Z,10.80
2018-12-06T20:25:44.502Z,10.80
2018-12-06T20:28:12.021Z,10.90
2018-12-06T20:30:39.637Z,10.90
2018-12-06T20:33:07.163Z,10.90
2018-12-06T20:35:34.691Z,11.00
2018-12-06T20:38:02.209Z,11.00
2018-12-06T20:40:29.709Z,11.00
2018-12-06T20:42:57.238Z,11.00
2018-12-06T20:45:24.733Z,11.00
2018-12-06T20:47:52.238Z,11.10
2018-12-06T20:50:19.758Z,11.10
2018-12-06T20:52:47.267Z,11.10
2018-12-06T20:55:14.790Z,11.10
2018-12-06T20:57:42.298Z,11.10
2018-12-06T21:00:09.824Z,11.10
2018-12-06T21:02:37.324Z,11.10
2018-12-06T21:05:05.016Z,11.10
2018-12-06T21:07:32.774Z,11.10
2018-12-06T21:10:00.303Z,11.10
2018-12-06T21:12:27.819Z,11.10
2018-12-06T21:14:55.335Z,11.10
2018-12-06T21:17:22.836Z,11.00
2018-12-06T21:19:50.365Z,11.10
2018-12-06T21:22:18.116Z,11.10
2018-12-06T21:24:45.657Z,11.10
2018-12-06T21:27:13.161Z,11.10
2018-12-06T21:29:40.686Z,11.10
2018-12-06T21:32:08.302Z,11.20
2018-12-06T21:34:36.101Z,11.20
2018-12-06T21:37:03.599Z,11.10
2018-12-06T21:39:31.129Z,11.20
2018-12-06T21:41:58.626Z,11.30
2018-12-06T21:44:26.429Z,11.30
2018-12-06T21:46:54.401Z,11.30
2018-12-06T21:49:21.907Z,11.30
2018-12-06T21:51:49.420Z,11.30
2018-12-06T21:54:16.922Z,11.30
2018-12-06T21:56:44.450Z,11.30
2018-12-06T21:59:11.944Z,11.40
2018-12-06T22:01:39.460Z,11.40
2018-12-06T22:04:06.969Z,11.40
2018-12-06T22:06:34.501Z,11.40
2018-12-06T22:09:02.009Z,11.30
2018-12-06T22:11:29.529Z,11.40
2018-12-06T22:13:57.034Z,11.40
2018-12-06T22:16:25.402Z,11.40
2018-12-06T22:18:52.903Z,11.30
2018-12-06T22:21:20.432Z,11.30
2018-12-06T22:23:47.937Z,11.30
2018-12-06T22:26:15.457Z,11.30
2018-12-06T22:28:42.956Z,11.30
2018-12-06T22:31:10.486Z,11.30
2018-12-06T22:33:37.984Z,11.40
2018-12-06T22:36:05.570Z,11.30
2018-12-06T22:38:34.329Z,11.30
2018-12-06T22:41:02.018Z,11.30
2018-12-06T22:43:29.537Z,11.40
2018-12-06T22:45:57.760Z,11.40
2018-12-06T22:48:25.672Z,11.40
2018-12-06T22:50:53.240Z,11.40
2018-12-06T22:53:20.928Z,11.40
2018-12-06T22:55:48.426Z,11.40
2018-12-06T22:58:16.309Z,11.40
2018-12-06T23:00:46.376Z,11.50
2018-12-06T23:03:13.968Z,11.50
2018-12-06T23:05:41.473Z,11.50
2018-12-06T23:08:09.002Z,11.50
2018-12-06T23:10:36.493Z,11.50
2018-12-06T23:13:04.018Z,11.60
2018-12-06T23:15:31.524Z,11.60
2018-12-06T23:17:59.045Z,11.60
2018-12-06T23:20:26.545Z,11.60
2018-12-06T23:22:54.062Z,11.60
2018-12-06T23:25:21.566Z,11.60
2018-12-06T23:27:49.700Z,11.70
2018-12-06T23:30:17.297Z,11.70
2018-12-06T23:32:44.820Z,11.70
2018-12-06T23:35:12.318Z,11.70
2018-12-06T23:37:39.838Z,11.70
2018-12-06T23:40:07.397Z,11.60
2018-12-06T23:42:34.925Z,11.70
2018-12-06T23:45:02.430Z,11.70
2018-12-06T23:47:29.962Z,11.70
2018-12-06T23:49:57.473Z,11.70
2018-12-06T23:52:25.266Z,11.70
2018-12-06T23:54:52.785Z,11.70
2018-12-06T23:57:20.295Z,11.70
2018-12-06T23:59:47.820Z,11.80
